Burnet's Hourly Summary for Sunday, May 13, 2018
Hour Temp
(f)
RH
(%)
Solar Rad.
(MJ/m2)
Rainfall
(in)
Wind
(mph)
5/13/2018 12:00 AM 76 80 0 0 5.08
5/13/2018 1:00 AM 74 84 0 0 6.47
5/13/2018 2:00 AM 73 84 0 0 5.15
5/13/2018 3:00 AM 73 86 0 0 3.89
5/13/2018 4:00 AM 72 86 0 0 4.75
5/13/2018 5:00 AM 71 88 0 0 4.91
5/13/2018 6:00 AM 71 90 0 0 3.98
5/13/2018 7:00 AM 70 92 0.01 0 2.55
5/13/2018 8:00 AM 73 92 0.28 0 3.48
5/13/2018 9:00 AM 75 84 0.93 0 5.95
5/13/2018 10:00 AM 78 77 1.43 0 6.73
5/13/2018 11:00 AM 80 70 1.56 0 5.21
5/13/2018 12:00 PM 82 61 2.37 0 5.74
5/13/2018 1:00 PM 84 55 2.37 0 6.28
5/13/2018 2:00 PM 86 49 2.47 0 6.12
5/13/2018 3:00 PM 86 48 2.31 0 6.4
5/13/2018 4:00 PM 87 47 1.26 0 6.84
5/13/2018 5:00 PM 87 46 1.74 0 5.78
5/13/2018 6:00 PM 86 46 1.16 0 6.16
5/13/2018 7:00 PM 86 48 0.99 0 5.62
5/13/2018 8:00 PM 85 52 0.31 0 4.68
5/13/2018 9:00 PM 82 60 0.01 0 2.74
5/13/2018 10:00 PM 80 64 0 0 3.36
5/13/2018 11:00 PM 79 70 0 0 5.32
Data Summary 79 69 19.20 0.00 5.13